Time;durP1;ratioP1;P1;durP2;ratioP2;P2;SDS_P1;SDS_P2;PMS_P1;PMS_P2;Temp;Humidity;BMP_temperature;BMP_pressure;BME280_temperature;BME280_humidity;BME280_pressure;Samples;Min_cycle;Max_cycle;Signal;HPM_P1;HPM_P2
2022/06/07 00:01:34;;;;;;;7.97;7.18;;;16.80;99.90;;;;;;5229724;28;20040;-74
2022/06/07 00:04:06;;;;;;;9.02;7.60;;;16.80;99.90;;;;;;5229797;28;20048;-73
2022/06/07 00:06:36;;;;;;;10.13;7.65;;;16.80;99.90;;;;;;5229678;28;20044;-73
2022/06/07 00:09:07;;;;;;;11.48;6.97;;;16.70;99.90;;;;;;5211901;28;20021;-74
2022/06/07 00:11:38;;;;;;;7.25;6.43;;;16.80;99.90;;;;;;5229422;28;20037;-73
2022/06/07 00:14:08;;;;;;;9.73;7.05;;;16.50;99.90;;;;;;5229678;28;20030;-73
2022/06/07 00:16:39;;;;;;;9.10;7.22;;;16.50;99.90;;;;;;5211836;28;20017;-74
2022/06/07 00:19:10;;;;;;;11.73;6.72;;;16.40;99.90;;;;;;5229518;28;20469;-73
2022/06/07 00:21:41;;;;;;;7.40;6.10;;;16.40;99.90;;;;;;5229079;28;20061;-74
2022/06/07 00:24:12;;;;;;;7.93;7.13;;;16.40;99.90;;;;;;5211113;28;20076;-73
2022/06/07 00:26:43;;;;;;;7.53;6.53;;;16.30;99.90;;;;;;5229360;28;20048;-73
2022/06/07 00:29:14;;;;;;;10.43;5.90;;;16.20;99.90;;;;;;5211434;28;20417;-74
2022/06/07 00:31:45;;;;;;;7.38;6.25;;;16.20;99.90;;;;;;5229163;28;20032;-73
2022/06/07 00:34:16;;;;;;;8.82;6.43;;;16.20;99.90;;;;;;5228978;28;20434;-73
2022/06/07 00:36:47;;;;;;;7.35;6.30;;;16.30;99.90;;;;;;5229065;28;20040;-73
2022/06/07 00:39:18;;;;;;;11.50;7.30;;;16.30;99.90;;;;;;5229027;28;20469;-73
2022/06/07 00:41:49;;;;;;;9.50;6.47;;;16.20;99.90;;;;;;5228664;28;20029;-73
2022/06/07 00:44:25;;;;;;;10.25;6.45;;;16.30;99.90;;;;;;5229019;28;20028;-73
2022/06/07 00:47:11;;;;;;;8.00;6.15;;;16.20;99.90;;;;;;5210957;28;20470;-73
2022/06/07 00:49:46;;;;;;;10.05;7.35;;;16.20;99.90;;;;;;5228945;28;20024;-75
2022/06/07 00:52:20;;;;;;;15.18;7.82;;;16.10;99.90;;;;;;5228438;28;20524;-73
2022/06/07 00:54:51;;;;;;;11.10;7.32;;;16.00;99.90;;;;;;5228682;28;20025;-73
2022/06/07 00:57:23;;;;;;;9.98;7.55;;;16.20;99.90;;;;;;5227872;28;20017;-73
2022/06/07 00:59:54;;;;;;;9.23;7.72;;;16.40;99.90;;;;;;5228579;28;20028;-74
2022/06/07 01:02:25;;;;;;;7.57;6.55;;;16.40;99.90;;;;;;5228644;28;20023;-73
2022/06/07 01:04:55;;;;;;;11.30;7.53;;;16.10;99.90;;;;;;5210915;28;20362;-74
2022/06/07 01:13:04;;;;;;;7.68;6.80;;;16.20;99.90;;;;;;5228274;28;20127;-73
2022/06/07 01:15:36;;;;;;;9.55;7.90;;;16.20;99.90;;;;;;5228519;28;20100;-73
2022/06/07 01:18:06;;;;;;;7.63;6.93;;;16.10;99.90;;;;;;5228201;28;20044;-73
2022/06/07 01:20:37;;;;;;;11.80;8.10;;;16.40;99.90;;;;;;5228158;28;20025;-75
2022/06/07 01:23:08;;;;;;;21.00;9.90;;;16.40;99.90;;;;;;5228109;28;20049;-76
2022/06/07 01:25:40;;;;;;;24.15;9.52;;;16.80;99.90;;;;;;5228653;28;20032;-76
2022/06/07 01:28:10;;;;;;;15.20;9.73;;;16.70;99.90;;;;;;5228271;28;20086;-77
2022/06/07 01:30:41;;;;;;;17.05;9.57;;;16.50;99.90;;;;;;5228334;28;20368;-77
2022/06/07 01:33:12;;;;;;;13.63;9.35;;;16.40;99.90;;;;;;5228034;28;20175;-77
2022/06/07 01:35:45;;;;;;;14.65;9.60;;;16.50;99.90;;;;;;5227944;28;20040;-77
2022/06/07 01:38:16;;;;;;;12.55;8.75;;;16.80;99.90;;;;;;5227931;28;20020;-77
2022/06/07 01:43:40;;;;;;;17.73;8.63;;;17.00;99.90;;;;;;5228315;28;20582;-76
2022/06/07 01:46:11;;;;;;;17.63;9.27;;;17.10;99.90;;;;;;5228033;28;20107;-76
2022/06/07 01:48:42;;;;;;;16.23;8.93;;;16.90;99.90;;;;;;5227705;28;20029;-76
2022/06/07 01:51:13;;;;;;;16.55;9.30;;;16.70;99.90;;;;;;5227635;28;20043;-76
2022/06/07 01:53:44;;;;;;;12.35;9.18;;;17.00;99.90;;;;;;5227653;28;20017;-77
2022/06/07 01:56:16;;;;;;;16.38;9.48;;;16.70;99.90;;;;;;5227656;28;20051;-77
2022/06/07 01:58:47;;;;;;;17.08;9.63;;;16.60;99.90;;;;;;5227795;28;20485;-76
2022/06/07 02:01:18;;;;;;;12.45;9.70;;;16.70;99.90;;;;;;5227551;28;20021;-76
2022/06/07 02:03:49;;;;;;;11.40;8.77;;;16.70;99.90;;;;;;5227477;28;20092;-76
2022/06/07 02:06:20;;;;;;;11.60;8.80;;;16.70;99.90;;;;;;5227599;28;20174;-76
2022/06/07 02:08:51;;;;;;;11.10;9.20;;;16.80;99.90;;;;;;5227409;28;20052;-77
2022/06/07 02:11:24;;;;;;;10.45;8.25;;;16.80;99.90;;;;;;5227589;28;20099;-77
2022/06/07 02:13:55;;;;;;;14.13;9.52;;;16.80;99.90;;;;;;5227507;28;20078;-76
2022/06/07 02:16:26;;;;;;;16.08;10.65;;;16.70;99.90;;;;;;5227720;28;20025;-77
2022/06/07 02:18:58;;;;;;;13.95;10.75;;;16.80;99.90;;;;;;5227341;28;20025;-77
2022/06/07 02:21:29;;;;;;;11.20;9.38;;;16.90;99.90;;;;;;5227066;28;20102;-77
2022/06/07 02:23:59;;;;;;;14.63;9.18;;;16.80;99.90;;;;;;5227596;28;20017;-77
2022/06/07 02:26:36;;;;;;;16.40;9.45;;;16.70;99.90;;;;;;5227297;28;20047;-76
2022/06/07 02:29:30;;;;;;;10.77;9.02;;;16.90;99.90;;;;;;5227524;28;20023;-76
2022/06/07 02:32:08;;;;;;;14.55;8.80;;;17.00;99.90;;;;;;5227115;28;20029;-77
2022/06/07 02:34:41;;;;;;;10.30;8.68;;;17.00;99.90;;;;;;5227289;28;20032;-76
2022/06/07 02:37:13;;;;;;;13.07;9.70;;;17.10;99.90;;;;;;5227250;28;20013;-76
2022/06/07 02:39:44;;;;;;;11.38;8.90;;;17.10;99.90;;;;;;5227266;28;20025;-76
2022/06/07 02:42:17;;;;;;;14.95;9.52;;;17.00;99.90;;;;;;5227139;28;20037;-77
2022/06/07 02:44:48;;;;;;;19.80;9.60;;;17.10;99.90;;;;;;5227298;28;20029;-76
2022/06/07 02:47:19;;;;;;;14.43;9.30;;;17.00;99.90;;;;;;5227126;28;20419;-77
2022/06/07 02:49:52;;;;;;;12.82;8.40;;;17.00;99.90;;;;;;5227286;28;20472;-76
2022/06/07 02:52:23;;;;;;;11.40;9.20;;;17.00;99.90;;;;;;5226876;28;20045;-76
2022/06/07 02:54:53;;;;;;;11.80;8.65;;;16.90;99.90;;;;;;5209290;28;20464;-76
2022/06/07 02:57:27;;;;;;;19.27;10.15;;;16.80;99.90;;;;;;5227318;28;20100;-76
2022/06/07 02:59:58;;;;;;;16.15;9.63;;;16.80;99.90;;;;;;5226977;28;20396;-76
2022/06/07 03:02:28;;;;;;;13.20;9.57;;;16.80;99.90;;;;;;5226903;28;20017;-76
2022/06/07 03:04:59;;;;;;;13.02;10.32;;;17.00;99.90;;;;;;5226998;28;20051;-76
2022/06/07 03:07:30;;;;;;;16.35;8.98;;;16.90;99.90;;;;;;5226979;28;20025;-77
2022/06/07 03:10:00;;;;;;;10.90;9.82;;;17.20;99.90;;;;;;5226850;28;20009;-77
2022/06/07 03:12:32;;;;;;;10.50;8.73;;;17.00;99.90;;;;;;5226741;28;20389;-76
2022/06/07 03:15:03;;;;;;;12.57;10.13;;;17.00;99.90;;;;;;5209300;28;20100;-76
2022/06/07 03:17:35;;;;;;;21.30;8.43;;;17.00;99.90;;;;;;5226909;28;20033;-76
2022/06/07 03:20:07;;;;;;;15.57;10.50;;;17.00;99.90;;;;;;5229294;28;20052;-76
2022/06/07 03:22:38;;;;;;;11.88;8.93;;;17.10;99.90;;;;;;5230311;28;20492;-77
2022/06/07 03:25:10;;;;;;;12.75;9.95;;;17.10;99.90;;;;;;5230538;28;20025;-76
2022/06/07 03:27:41;;;;;;;11.63;9.68;;;17.20;99.90;;;;;;5230448;28;20032;-76
2022/06/07 03:30:12;;;;;;;13.07;9.65;;;17.20;99.90;;;;;;5230494;28;20426;-77
2022/06/07 03:32:44;;;;;;;11.80;9.10;;;17.30;99.90;;;;;;5230232;28;20041;-77
2022/06/07 03:35:15;;;;;;;11.18;8.32;;;17.50;99.90;;;;;;5230140;28;20051;-76
2022/06/07 03:37:46;;;;;;;10.95;9.00;;;17.60;99.90;;;;;;5230151;28;20086;-77
2022/06/07 03:40:42;;;;;;;11.15;9.88;;;17.60;99.90;;;;;;5230424;28;20017;-76
2022/06/07 03:43:08;;;;;;;13.55;8.65;;;17.80;99.90;;;;;;5230096;28;20124;-76
2022/06/07 03:45:39;;;;;;;10.82;8.95;;;17.70;99.90;;;;;;5230229;28;20686;-76
2022/06/07 03:48:10;;;;;;;10.52;7.97;;;17.90;99.90;;;;;;5230099;28;20089;-76
2022/06/07 03:50:41;;;;;;;12.93;7.28;;;17.90;99.90;;;;;;5229972;28;20021;-76
2022/06/07 03:53:12;;;;;;;9.93;6.95;;;18.00;99.90;;;;;;5229899;28;20495;-77
2022/06/07 03:55:47;;;;;;;8.00;6.60;;;18.20;99.90;;;;;;5229900;28;20484;-76
2022/06/07 03:58:18;;;;;;;8.52;7.60;;;18.20;99.90;;;;;;5230191;28;20029;-76
2022/06/07 04:00:49;;;;;;;26.52;7.28;;;18.20;99.90;;;;;;5230016;28;20029;-76
2022/06/07 04:03:19;;;;;;;11.35;8.20;;;18.30;99.90;;;;;;5229674;28;20096;-76
2022/06/07 04:05:50;;;;;;;11.10;8.23;;;18.20;99.90;;;;;;5229805;28;20033;-76
2022/06/07 04:08:22;;;;;;;13.55;8.63;;;18.10;99.90;;;;;;5229630;28;20025;-76
2022/06/07 04:11:02;;;;;;;12.52;8.77;;;17.90;99.90;;;;;;5229649;28;20059;-76
2022/06/07 04:13:33;;;;;;;10.15;8.48;;;17.90;99.90;;;;;;5229496;28;20072;-76
2022/06/07 04:16:12;;;;;;;12.50;9.32;;;18.00;99.90;;;;;;5229665;28;20060;-75
2022/06/07 04:18:43;;;;;;;13.10;8.02;;;17.80;99.90;;;;;;5229446;28;20033;-76
2022/06/07 04:21:15;;;;;;;13.77;8.32;;;18.00;99.90;;;;;;5229236;28;20037;-76
2022/06/07 04:23:46;;;;;;;9.93;8.63;;;18.10;99.90;;;;;;5229300;28;20033;-76
2022/06/07 04:26:20;;;;;;;15.63;10.60;;;18.10;99.90;;;;;;5229525;28;20051;-76
2022/06/07 04:28:51;;;;;;;8.77;7.70;;;18.00;99.90;;;;;;5229408;28;20031;-76
2022/06/07 04:31:24;;;;;;;10.70;9.40;;;17.80;99.90;;;;;;5229114;28;20377;-76
2022/06/07 04:33:58;;;;;;;12.93;10.10;;;17.80;99.90;;;;;;5229000;28;20029;-77
2022/06/07 04:36:29;;;;;;;12.05;8.25;;;17.80;99.90;;;;;;5229148;28;20025;-76
2022/06/07 04:39:02;;;;;;;12.50;8.05;;;17.90;99.90;;;;;;5229310;28;20090;-76
2022/06/07 04:41:33;;;;;;;9.00;8.10;;;17.90;99.90;;;;;;5229035;28;20032;-76
2022/06/07 04:44:04;;;;;;;10.95;7.75;;;18.10;99.90;;;;;;5229184;28;20120;-76
2022/06/07 04:46:35;;;;;;;13.57;7.85;;;18.10;99.90;;;;;;5229217;28;20112;-76
2022/06/07 04:49:06;;;;;;;13.40;8.65;;;18.20;99.90;;;;;;5229012;28;20465;-76
2022/06/07 04:51:38;;;;;;;13.25;8.30;;;18.20;99.90;;;;;;5228500;28;20073;-76
2022/06/07 04:54:09;;;;;;;10.20;6.90;;;18.40;99.90;;;;;;5228732;28;20473;-75
2022/06/07 04:56:40;;;;;;;10.95;7.65;;;18.20;99.90;;;;;;5228641;28;20045;-76
2022/06/07 04:59:12;;;;;;;10.68;7.30;;;18.50;99.90;;;;;;5228586;28;20110;-76
2022/06/07 05:01:44;;;;;;;9.50;7.00;;;18.40;99.90;;;;;;5228728;28;20013;-76
2022/06/07 05:04:14;;;;;;;10.77;7.50;;;18.50;99.90;;;;;;5228678;28;20074;-75
2022/06/07 05:06:46;;;;;;;10.00;7.30;;;18.30;99.90;;;;;;5228806;28;20468;-75
2022/06/07 05:09:22;;;;;;;11.23;7.75;;;18.30;99.90;;;;;;5228676;28;20029;-76
2022/06/07 05:11:53;;;;;;;16.85;8.48;;;18.40;99.90;;;;;;5228396;28;20041;-76
2022/06/07 05:14:24;;;;;;;11.27;8.15;;;18.40;99.90;;;;;;5228636;28;20025;-76
2022/06/07 05:16:55;;;;;;;13.48;7.80;;;18.50;99.90;;;;;;5228495;28;20021;-76
2022/06/07 05:19:27;;;;;;;14.05;7.00;;;18.50;99.90;;;;;;5228339;28;20123;-76
2022/06/07 05:21:58;;;;;;;13.48;6.80;;;18.70;99.90;;;;;;5227632;28;20053;-76
2022/06/07 05:24:29;;;;;;;12.90;6.13;;;18.90;99.90;;;;;;5227601;28;20027;-76
2022/06/07 05:27:02;;;;;;;14.82;6.22;;;18.80;99.90;;;;;;5227713;28;20020;-75
2022/06/07 05:29:54;;;;;;;11.02;6.10;;;18.90;99.90;;;;;;5227623;28;20099;-76
2022/06/07 05:32:26;;;;;;;13.45;6.85;;;19.00;99.90;;;;;;5186635;28;20033;-76
2022/06/07 05:34:57;;;;;;;6.97;5.70;;;19.00;99.90;;;;;;5186450;28;20192;-76
2022/06/07 05:37:27;;;;;;;10.60;5.40;;;19.20;99.90;;;;;;5186505;28;20081;-76
2022/06/07 05:39:59;;;;;;;10.50;5.55;;;19.00;99.90;;;;;;5168742;28;20028;-76
2022/06/07 05:42:31;;;;;;;12.35;6.07;;;19.20;99.90;;;;;;5168515;28;20037;-76
2022/06/07 05:45:02;;;;;;;11.38;5.60;;;19.60;99.90;;;;;;5204697;28;20040;-76
2022/06/07 05:47:32;;;;;;;14.43;5.18;;;19.60;99.90;;;;;;5223170;28;20092;-76
2022/06/07 05:50:07;;;;;;;11.18;5.40;;;19.60;99.90;;;;;;5227337;28;20430;-76
2022/06/07 05:52:40;;;;;;;7.88;4.82;;;19.50;99.90;;;;;;5209867;28;20057;-76
2022/06/07 05:55:11;;;;;;;13.57;5.70;;;19.50;99.90;;;;;;5227192;28;20028;-75
2022/06/07 05:57:44;;;;;;;7.30;5.00;;;19.50;99.90;;;;;;5209305;28;20472;-76
2022/06/07 06:00:17;;;;;;;11.52;6.10;;;19.20;99.90;;;;;;5227708;28;20100;-75
2022/06/07 06:02:48;;;;;;;12.48;5.97;;;19.20;99.90;;;;;;5227481;28;20025;-76
2022/06/07 06:05:19;;;;;;;10.50;5.65;;;19.30;99.90;;;;;;5227605;28;20163;-76
2022/06/07 06:10:39;;;;;;;9.68;6.28;;;19.40;99.90;;;;;;5227802;28;20031;-76
2022/06/07 06:13:10;;;;;;;15.55;7.05;;;19.50;99.90;;;;;;5227379;28;20468;-76
2022/06/07 06:15:41;;;;;;;10.25;5.50;;;19.40;99.90;;;;;;5227812;28;20408;-76
2022/06/07 06:18:11;;;;;;;12.85;6.00;;;19.20;99.90;;;;;;5227480;28;20033;-76
2022/06/07 06:20:42;;;;;;;14.32;6.95;;;19.10;99.90;;;;;;5226757;28;20025;-76
2022/06/07 06:23:13;;;;;;;10.82;5.18;;;19.00;99.90;;;;;;5227138;28;20443;-76
2022/06/07 06:25:44;;;;;;;9.32;5.30;;;19.00;99.90;;;;;;5227299;28;20021;-75
2022/06/07 06:28:16;;;;;;;8.00;4.72;;;19.00;99.90;;;;;;5227429;28;20434;-75
2022/06/07 06:30:48;;;;;;;9.75;4.38;;;19.10;99.90;;;;;;5227357;28;20028;-76
2022/06/07 06:33:19;;;;;;;12.85;5.40;;;19.00;99.90;;;;;;5227148;28;20358;-76
2022/06/07 06:35:53;;;;;;;8.10;5.22;;;19.10;99.90;;;;;;5227456;28;20373;-76
2022/06/07 06:38:24;;;;;;;6.97;4.40;;;19.10;99.90;;;;;;5227429;28;20059;-75
2022/06/07 06:40:54;;;;;;;11.02;4.90;;;19.20;99.90;;;;;;5226713;28;20029;-76
2022/06/07 06:43:25;;;;;;;7.88;4.18;;;19.20;99.90;;;;;;5226484;28;20032;-76
2022/06/07 06:46:04;;;;;;;8.75;4.93;;;19.20;99.90;;;;;;5227094;28;20021;-77
2022/06/07 06:48:35;;;;;;;7.53;4.40;;;19.30;99.90;;;;;;5227045;28;20079;-76
2022/06/07 06:51:11;;;;;;;6.95;4.45;;;19.50;99.90;;;;;;5226518;28;20036;-75
2022/06/07 06:53:43;;;;;;;7.15;4.53;;;19.60;99.90;;;;;;5226968;28;20483;-77
2022/06/07 06:56:17;;;;;;;13.85;5.20;;;19.80;99.90;;;;;;5230668;28;20107;-75
2022/06/07 06:58:49;;;;;;;15.52;5.22;;;19.80;99.90;;;;;;5230941;28;20044;-74
2022/06/07 07:01:26;;;;;;;10.23;5.03;;;19.90;99.90;;;;;;5230476;28;20167;-74
2022/06/07 07:03:58;;;;;;;9.35;5.78;;;19.70;99.90;;;;;;5230726;28;20035;-74
2022/06/07 07:06:29;;;;;;;15.02;6.60;;;19.80;99.90;;;;;;5230750;28;20028;-75
2022/06/07 07:09:00;;;;;;;8.23;4.15;;;20.00;99.90;;;;;;5212876;28;20087;-74
2022/06/07 07:11:35;;;;;;;12.50;4.32;;;20.00;99.90;;;;;;5212791;28;20427;-74
2022/06/07 07:14:08;;;;;;;7.03;3.95;;;20.10;99.90;;;;;;5230798;28;20025;-74
2022/06/07 07:16:50;;;;;;;11.50;5.13;;;20.30;99.90;;;;;;5230595;28;20431;-74
2022/06/07 07:19:21;;;;;;;10.25;4.43;;;20.30;99.90;;;;;;5230725;28;20028;-74
2022/06/07 07:21:52;;;;;;;12.13;5.53;;;20.30;99.90;;;;;;5229978;28;20500;-74
2022/06/07 07:24:24;;;;;;;10.70;4.65;;;20.40;99.90;;;;;;5230266;28;20025;-75
2022/06/07 07:26:55;;;;;;;8.48;4.45;;;20.10;99.90;;;;;;5230334;28;20051;-77
2022/06/07 07:29:26;;;;;;;12.82;4.95;;;20.10;99.90;;;;;;5230346;28;20014;-76
2022/06/07 07:31:57;;;;;;;11.95;4.13;;;20.10;99.90;;;;;;5230407;28;20032;-75
2022/06/07 07:34:28;;;;;;;12.88;4.15;;;20.00;99.90;;;;;;5230419;28;20047;-75
2022/06/07 07:36:59;;;;;;;8.95;3.97;;;19.80;99.90;;;;;;5230411;28;20472;-75
2022/06/07 07:39:29;;;;;;;9.25;4.28;;;19.70;99.90;;;;;;5230017;28;20025;-76
2022/06/07 07:42:00;;;;;;;9.82;4.55;;;19.80;99.90;;;;;;5212472;28;20032;-76
2022/06/07 07:44:31;;;;;;;6.68;4.53;;;20.00;99.90;;;;;;5229435;28;20023;-76
2022/06/07 07:47:02;;;;;;;9.57;4.22;;;19.80;99.90;;;;;;5229870;28;20068;-76
2022/06/07 07:49:33;;;;;;;11.38;3.60;;;19.60;99.90;;;;;;5229406;28;20021;-77
2022/06/07 07:52:04;;;;;;;10.13;4.10;;;19.50;99.90;;;;;;5228947;28;20044;-76
2022/06/07 07:54:35;;;;;;;5.93;3.55;;;19.50;99.90;;;;;;5229640;28;20025;-75
2022/06/07 07:57:05;;;;;;;9.73;3.65;;;19.50;99.90;;;;;;5211546;28;20083;-76
2022/06/07 07:59:36;;;;;;;7.30;3.40;;;19.60;99.90;;;;;;5229409;28;20033;-76
2022/06/07 08:02:19;;;;;;;6.32;3.15;;;19.60;99.90;;;;;;5229641;28;20009;-76
2022/06/07 08:04:50;;;;;;;5.32;3.05;;;19.20;99.90;;;;;;5229221;28;20100;-76
2022/06/07 08:07:20;;;;;;;9.20;3.70;;;19.10;99.90;;;;;;5211634;28;20104;-76
2022/06/07 08:09:51;;;;;;;6.68;3.15;;;18.80;99.90;;;;;;5229485;28;20048;-76
2022/06/07 08:12:22;;;;;;;6.22;3.92;;;19.00;99.90;;;;;;5211463;28;20127;-76
2022/06/07 08:14:53;;;;;;;5.80;3.13;;;19.20;99.90;;;;;;5229282;28;20122;-76
2022/06/07 08:17:23;;;;;;;7.15;4.05;;;19.10;99.90;;;;;;5229339;28;20029;-76
2022/06/07 08:19:54;;;;;;;9.68;3.55;;;19.20;99.90;;;;;;5211400;28;20028;-76
2022/06/07 08:22:25;;;;;;;17.85;3.55;;;19.20;99.90;;;;;;5228822;28;20440;-76
2022/06/07 08:24:56;;;;;;;4.72;3.72;;;19.10;99.90;;;;;;5229202;28;20055;-76
2022/06/07 08:27:27;;;;;;;10.60;4.00;;;19.10;99.90;;;;;;5229241;28;20025;-76
2022/06/07 08:29:58;;;;;;;7.32;4.45;;;19.10;99.90;;;;;;5229112;28;20032;-75
2022/06/07 08:32:28;;;;;;;6.50;3.75;;;19.20;99.90;;;;;;5228956;28;20429;-77
2022/06/07 08:37:49;;;;;;;5.68;3.78;;;18.90;99.90;;;;;;5229100;28;20031;-77
2022/06/07 08:40:35;;;;;;;9.27;4.22;;;19.00;99.90;;;;;;5228878;28;20112;-77
2022/06/07 08:43:20;;;;;;;9.73;4.60;;;19.30;99.90;;;;;;5228935;28;20028;-80
2022/06/07 08:45:53;;;;;;;10.23;4.95;;;19.20;99.90;;;;;;5228802;28;20074;-76
2022/06/07 08:48:32;;;;;;;12.27;5.43;;;18.90;99.90;;;;;;5228710;28;20037;-76
2022/06/07 08:51:15;;;;;;;12.10;4.97;;;19.10;99.90;;;;;;5210591;28;20025;-76
2022/06/07 08:53:50;;;;;;;11.02;5.50;;;19.30;99.90;;;;;;5228513;28;20419;-76
2022/06/07 08:56:26;;;;;;;14.02;5.47;;;19.40;99.90;;;;;;5228663;28;20028;-76
2022/06/07 08:59:00;;;;;;;11.90;4.82;;;19.50;99.90;;;;;;5228661;28;20111;-75
2022/06/07 09:01:43;;;;;;;9.07;4.50;;;19.50;99.90;;;;;;5210663;28;20399;-76
2022/06/07 09:04:32;;;;;;;11.57;4.38;;;19.60;99.90;;;;;;5210580;28;20029;-75
2022/06/07 09:07:13;;;;;;;13.13;4.75;;;19.60;99.90;;;;;;5228454;28;20376;-76
2022/06/07 09:12:54;;;;;;;10.07;3.47;;;19.90;99.90;;;;;;5228341;28;20538;-80
2022/06/07 09:15:27;;;;;;;7.93;3.60;;;19.80;99.90;;;;;;5228104;28;20036;-76
2022/06/07 09:18:01;;;;;;;10.43;3.75;;;19.80;99.90;;;;;;5209497;28;20021;-75
2022/06/07 09:20:39;;;;;;;7.78;4.05;;;19.90;99.90;;;;;;5210135;28;20485;-76
2022/06/07 09:23:18;;;;;;;7.43;3.97;;;20.10;99.90;;;;;;5227793;28;20496;-76
2022/06/07 09:25:52;;;;;;;9.02;3.20;;;19.90;99.90;;;;;;5227960;28;20029;-75
2022/06/07 09:28:29;;;;;;;8.65;2.97;;;19.60;99.90;;;;;;5227995;28;20531;-75
2022/06/07 09:31:10;;;;;;;5.50;3.25;;;19.80;99.90;;;;;;5227895;28;20017;-76
2022/06/07 09:33:51;;;;;;;4.53;2.95;;;19.90;99.90;;;;;;5227763;28;20037;-75
2022/06/07 09:36:29;;;;;;;3.65;2.90;;;20.50;99.90;;;;;;5227739;28;20035;-75
2022/06/07 09:39:15;;;;;;;3.60;2.38;;;20.70;99.90;;;;;;5227763;28;20416;-76
2022/06/07 09:41:58;;;;;;;4.70;2.95;;;20.80;99.90;;;;;;5227642;28;20122;-76
2022/06/07 09:44:33;;;;;;;10.75;3.30;;;21.20;99.90;;;;;;5227841;28;20032;-76
2022/06/07 09:47:11;;;;;;;10.50;3.20;;;20.80;99.90;;;;;;5227655;28;20183;-77
2022/06/07 09:49:55;;;;;;;9.02;4.13;;;20.70;99.90;;;;;;5227720;28;20021;-77
2022/06/07 09:52:41;;;;;;;7.95;3.65;;;21.00;99.90;;;;;;5227386;28;20045;-76
2022/06/07 09:55:22;;;;;;;8.00;3.03;;;21.70;99.90;;;;;;5227539;28;20380;-76
2022/06/07 09:58:24;;;;;;;6.53;2.88;;;21.40;99.90;;;;;;5227407;28;20033;-77
2022/06/07 10:01:01;;;;;;;5.95;2.60;;;21.20;99.90;;;;;;5227409;28;20029;-76
2022/06/07 10:03:43;;;;;;;5.05;3.00;;;21.10;99.90;;;;;;5227431;28;20120;-76
2022/06/07 10:06:28;;;;;;;7.22;2.95;;;20.80;99.90;;;;;;5227404;28;20024;-76
2022/06/07 10:09:18;;;;;;;5.82;2.67;;;20.50;99.90;;;;;;5227299;28;20036;-76
2022/06/07 10:12:12;;;;;;;6.28;3.05;;;20.70;99.90;;;;;;5227186;28;20043;-76
2022/06/07 10:14:57;;;;;;;5.63;2.97;;;20.80;99.90;;;;;;5227238;28;20025;-77
2022/06/07 10:18:12;;;;;;;7.10;3.03;;;20.80;99.90;;;;;;5227149;28;20469;-77
2022/06/07 10:20:54;;;;;;;7.38;2.90;;;20.50;99.90;;;;;;5226860;28;20056;-80
2022/06/07 10:23:45;;;;;;;3.55;2.45;;;21.10;99.90;;;;;;5226994;28;20114;-77
2022/06/07 10:27:11;;;;;;;5.15;3.10;;;21.30;99.90;;;;;;5226723;28;20045;-76
2022/06/07 10:30:01;;;;;;;5.57;2.60;;;21.60;99.90;;;;;;5106226;28;20498;-77
2022/06/07 10:32:46;;;;;;;7.55;2.67;;;21.00;99.90;;;;;;5195312;28;20531;-79
2022/06/07 10:35:42;;;;;;;6.53;2.95;;;20.60;99.90;;;;;;5202618;28;20029;-76
2022/06/07 10:38:33;;;;;;;7.88;3.25;;;20.40;99.90;;;;;;5199573;28;20355;-76
2022/06/07 10:41:24;;;;;;;8.93;3.08;;;20.80;99.90;;;;;;5199564;28;20087;-77
2022/06/07 10:44:22;;;;;;;4.60;2.53;;;21.00;99.90;;;;;;5198245;28;20030;-76
2022/06/07 10:46:55;;;;;;;6.85;2.60;;;20.80;99.90;;;;;;5189141;28;20030;-76
2022/06/07 10:49:52;;;;;;;5.65;2.88;;;21.00;99.90;;;;;;5189308;28;20547;-76
2022/06/07 10:52:29;;;;;;;8.93;3.30;;;21.10;99.90;;;;;;5189659;28;20494;-76
2022/06/07 10:55:05;;;;;;;5.70;2.78;;;21.00;99.90;;;;;;5189712;28;20481;-76
2022/06/07 10:57:40;;;;;;;4.78;2.47;;;20.80;99.90;;;;;;5189823;28;20369;-76
2022/06/07 11:00:32;;;;;;;4.03;2.40;;;20.80;99.90;;;;;;5189729;28;20029;-76
2022/06/07 11:03:40;;;;;;;5.15;2.75;;;20.70;99.90;;;;;;5189713;28;20363;-75
2022/06/07 11:09:33;;;;;;;4.47;2.70;;;20.70;99.90;;;;;;5182013;28;20159;-76
2022/06/07 11:12:37;;;;;;;7.30;2.70;;;20.50;99.90;;;;;;5189487;28;20374;-75
2022/06/07 11:15:18;;;;;;;5.05;2.75;;;20.50;99.90;;;;;;5178656;28;20121;-75
2022/06/07 11:18:05;;;;;;;7.15;3.25;;;20.50;99.90;;;;;;5189454;28;20026;-76
2022/06/07 11:21:10;;;;;;;6.20;2.75;;;20.50;99.90;;;;;;5189289;28;20061;-79
2022/06/07 11:23:55;;;;;;;6.45;2.70;;;20.70;99.90;;;;;;5176025;28;20068;-76
2022/06/07 11:26:26;;;;;;;7.43;2.95;;;20.80;99.90;;;;;;5189386;28;20022;-76
2022/06/07 11:28:57;;;;;;;4.13;2.80;;;20.90;99.90;;;;;;5189204;28;20497;-76
2022/06/07 11:31:42;;;;;;;5.28;2.90;;;20.90;99.90;;;;;;5189080;28;20018;-75
2022/06/07 11:34:35;;;;;;;6.00;3.03;;;21.00;99.90;;;;;;5189060;28;20026;-76
2022/06/07 11:37:15;;;;;;;5.90;3.30;;;21.20;99.90;;;;;;5189082;28;20018;-76
2022/06/07 11:39:55;;;;;;;6.80;2.45;;;21.00;99.90;;;;;;5188234;28;20080;-76
2022/06/07 11:42:33;;;;;;;7.60;2.55;;;21.30;99.90;;;;;;5188949;28;20030;-77
2022/06/07 11:45:16;;;;;;;6.03;3.50;;;21.40;99.90;;;;;;5222083;28;20032;-76
2022/06/07 11:47:46;;;;;;;8.25;3.17;;;21.80;99.90;;;;;;5229160;28;20052;-76
2022/06/07 11:50:38;;;;;;;8.00;3.17;;;21.70;99.90;;;;;;5229032;28;20052;-76
2022/06/07 11:53:32;;;;;;;7.03;3.42;;;22.00;99.90;;;;;;5229616;28;20049;-79
2022/06/07 11:56:30;;;;;;;5.88;3.00;;;22.10;99.90;;;;;;5229876;28;20075;-76
2022/06/07 11:59:23;;;;;;;5.05;2.20;;;22.00;99.90;;;;;;5229801;28;20029;-75
2022/06/07 12:01:54;;;;;;;4.50;2.13;;;21.40;99.90;;;;;;5229462;28;20029;-76
2022/06/07 12:04:29;;;;;;;3.22;2.10;;;21.60;99.90;;;;;;5228842;28;20404;-76
2022/06/07 12:07:06;;;;;;;7.07;2.30;;;22.00;99.90;;;;;;5229448;28;20028;-79
2022/06/07 12:09:39;;;;;;;3.53;2.38;;;22.60;99.90;;;;;;5211810;28;20100;-78
2022/06/07 12:12:28;;;;;;;5.63;2.55;;;22.30;99.90;;;;;;5229278;28;20033;-75
2022/06/07 12:15:21;;;;;;;5.15;2.53;;;21.60;99.90;;;;;;5211483;28;20492;-75
2022/06/07 12:17:52;;;;;;;4.43;2.28;;;22.20;99.90;;;;;;5229431;28;20508;-75
2022/06/07 12:20:30;;;;;;;4.78;2.10;;;22.50;99.90;;;;;;5229069;28;20155;-76
2022/06/07 12:23:26;;;;;;;7.47;2.13;;;22.00;99.90;;;;;;5228914;28;20370;-76
2022/06/07 12:26:15;;;;;;;3.20;2.10;;;22.00;99.90;;;;;;5229125;28;20423;-76
2022/06/07 12:29:02;;;;;;;4.88;2.25;;;22.40;99.90;;;;;;5229172;28;20052;-76
2022/06/07 12:31:51;;;;;;;2.83;2.22;;;22.30;99.90;;;;;;5228921;28;20116;-76
2022/06/07 12:34:31;;;;;;;3.13;2.30;;;22.90;99.90;;;;;;5228910;28;20052;-79
2022/06/07 12:37:25;;;;;;;3.00;2.33;;;22.80;99.90;;;;;;5211038;28;20029;-76
2022/06/07 12:39:57;;;;;;;4.78;2.00;;;22.80;99.90;;;;;;5210986;28;20036;-76
2022/06/07 12:42:33;;;;;;;2.40;2.00;;;23.10;99.90;;;;;;5228835;28;20051;-76
2022/06/07 12:45:27;;;;;;;4.75;2.53;;;23.20;99.90;;;;;;5228867;28;20079;-77
2022/06/07 12:48:07;;;;;;;5.00;1.88;;;23.20;99.90;;;;;;5227587;28;20033;-76
2022/06/07 12:50:40;;;;;;;3.80;2.20;;;23.20;99.90;;;;;;5208312;28;20032;-78
2022/06/07 12:53:26;;;;;;;5.45;2.35;;;23.20;99.90;;;;;;5207170;28;20091;-77
2022/06/07 12:56:11;;;;;;;4.10;2.33;;;22.90;99.90;;;;;;5211528;28;20052;-77
2022/06/07 12:58:52;;;;;;;4.18;2.72;;;23.00;99.90;;;;;;5220087;28;20021;-76
2022/06/07 13:01:26;;;;;;;4.80;2.65;;;23.00;99.90;;;;;;5216605;28;20021;-75
2022/06/07 13:04:00;;;;;;;7.60;2.67;;;22.80;99.90;;;;;;5220384;28;20040;-77
2022/06/07 13:06:30;;;;;;;3.85;2.35;;;23.10;99.90;;;;;;5214228;28;20025;-78
2022/06/07 13:09:18;;;;;;;5.75;2.78;;;23.00;99.90;;;;;;5215900;28;20373;-75
2022/06/07 13:11:50;;;;;;;4.68;2.33;;;22.70;99.90;;;;;;5207962;28;20026;-75
2022/06/07 13:14:20;;;;;;;4.10;2.20;;;22.80;99.90;;;;;;5207859;28;20034;-76
2022/06/07 13:16:52;;;;;;;7.75;2.40;;;23.30;99.90;;;;;;5207797;28;20029;-75
2022/06/07 13:19:27;;;;;;;5.18;2.25;;;23.20;99.90;;;;;;5207797;28;20029;-76
2022/06/07 13:22:10;;;;;;;3.60;2.10;;;23.20;99.90;;;;;;5207329;28;20147;-77
2022/06/07 13:24:51;;;;;;;5.85;2.50;;;22.70;99.90;;;;;;5207485;28;20026;-75
2022/06/07 13:27:43;;;;;;;2.80;2.10;;;22.80;99.90;;;;;;5207779;28;20466;-75
2022/06/07 13:30:16;;;;;;;6.78;2.17;;;22.40;99.90;;;;;;5207616;28;20037;-76
2022/06/07 13:33:00;;;;;;;3.17;2.13;;;22.30;99.90;;;;;;5207267;28;20389;-76
2022/06/07 13:35:54;;;;;;;4.47;2.58;;;21.90;99.90;;;;;;5207604;28;20029;-75
2022/06/07 13:38:34;;;;;;;6.10;2.38;;;21.80;99.90;;;;;;5207281;28;20029;-76
2022/06/07 13:41:18;;;;;;;6.70;2.45;;;21.90;99.90;;;;;;5207275;28;20090;-78
2022/06/07 13:43:51;;;;;;;4.60;2.38;;;21.80;99.90;;;;;;5207406;28;20029;-76
2022/06/07 13:55:35;;;;;;;2.72;1.60;;;21.20;99.90;;;;;;5207354;28;20052;-75